sensor_id;sensor_type;location;lat;lon;timestamp;pressure;altitude;pressure_sealevel;temperature;humidity
40730;BME280;26418;50.070;8.436;2022-11-14T00:02:16;100070.31;;;5.73;88.18
40730;BME280;26418;50.070;8.436;2022-11-14T00:04:45;100074.06;;;5.72;88.24
40730;BME280;26418;50.070;8.436;2022-11-14T00:07:10;100075.41;;;5.70;88.42
40730;BME280;26418;50.070;8.436;2022-11-14T00:09:35;100075.41;;;5.70;88.90
40730;BME280;26418;50.070;8.436;2022-11-14T00:12:03;100072.72;;;5.70;88.91
40730;BME280;26418;50.070;8.436;2022-11-14T00:14:29;100071.09;;;5.69;88.95
40730;BME280;26418;50.070;8.436;2022-11-14T00:16:54;100072.72;;;5.70;88.89
40730;BME280;26418;50.070;8.436;2022-11-14T00:19:19;100076.47;;;5.69;89.04
40730;BME280;26418;50.070;8.436;2022-11-14T00:21:45;100073.25;;;5.66;88.94
40730;BME280;26418;50.070;8.436;2022-11-14T00:24:10;100073.78;;;5.63;89.11
40730;BME280;26418;50.070;8.436;2022-11-14T00:26:36;100075.34;;;5.59;89.21
40730;BME280;26418;50.070;8.436;2022-11-14T00:29:02;100074.56;;;5.59;90.39
40730;BME280;26418;50.070;8.436;2022-11-14T00:31:27;100070.25;;;5.63;91.31
40730;BME280;26418;50.070;8.436;2022-11-14T00:33:53;100073.22;;;5.61;91.25
40730;BME280;26418;50.070;8.436;2022-11-14T00:36:18;100068.63;;;5.57;91.01
40730;BME280;26418;50.070;8.436;2022-11-14T00:38:43;100070.50;;;5.51;90.93
40730;BME280;26418;50.070;8.436;2022-11-14T00:41:09;100064.31;;;5.45;90.80
40730;BME280;26418;50.070;8.436;2022-11-14T00:43:34;100066.19;;;5.40;90.78
40730;BME280;26418;50.070;8.436;2022-11-14T00:46:00;100059.16;;;5.33;91.10
40730;BME280;26418;50.070;8.436;2022-11-14T00:48:28;100065.56;;;5.27;91.11
40730;BME280;26418;50.070;8.436;2022-11-14T00:50:53;100063.44;;;5.24;91.34
40730;BME280;26418;50.070;8.436;2022-11-14T00:53:24;100065.00;;;5.20;91.37
40730;BME280;26418;50.070;8.436;2022-11-14T00:55:49;100069.78;;;5.13;91.39
40730;BME280;26418;50.070;8.436;2022-11-14T00:58:15;100075.38;;;5.06;91.55
40730;BME280;26418;50.070;8.436;2022-11-14T01:00:40;100072.94;;;4.99;91.55
40730;BME280;26418;50.070;8.436;2022-11-14T01:03:14;100061.09;;;4.90;91.82
40730;BME280;26418;50.070;8.436;2022-11-14T01:05:41;100065.63;;;4.84;91.91
40730;BME280;26418;50.070;8.436;2022-11-14T01:08:09;100073.59;;;4.79;92.09
40730;BME280;26418;50.070;8.436;2022-11-14T01:10:48;100064.19;;;4.71;92.22
40730;BME280;26418;50.070;8.436;2022-11-14T01:13:15;100065.22;;;4.65;92.53
40730;BME280;26418;50.070;8.436;2022-11-14T01:15:46;100067.56;;;4.56;92.70
40730;BME280;26418;50.070;8.436;2022-11-14T01:18:15;100058.66;;;4.51;92.85
40730;BME280;26418;50.070;8.436;2022-11-14T01:20:42;100060.25;;;4.47;93.13
40730;BME280;26418;50.070;8.436;2022-11-14T01:23:09;100058.09;;;4.44;93.29
40730;BME280;26418;50.070;8.436;2022-11-14T01:25:36;100052.69;;;4.38;93.46
40730;BME280;26418;50.070;8.436;2022-11-14T01:28:07;100046.50;;;4.33;93.68
40730;BME280;26418;50.070;8.436;2022-11-14T01:30:33;100046.47;;;4.28;93.67
40730;BME280;26418;50.070;8.436;2022-11-14T01:32:58;100042.94;;;4.22;94.07
40730;BME280;26418;50.070;8.436;2022-11-14T01:35:24;100039.13;;;4.18;94.29
40730;BME280;26418;50.070;8.436;2022-11-14T01:37:49;100039.88;;;4.13;94.60
40730;BME280;26418;50.070;8.436;2022-11-14T01:40:15;100043.88;;;4.11;94.96
40730;BME280;26418;50.070;8.436;2022-11-14T01:42:41;100029.41;;;4.06;95.08
40730;BME280;26418;50.070;8.436;2022-11-14T01:50:59;100012.63;;;4.16;95.99
40730;BME280;26418;50.070;8.436;2022-11-14T01:53:26;100007.28;;;4.16;96.00
40730;BME280;26418;50.070;8.436;2022-11-14T01:55:53;100003.53;;;4.17;96.17
40730;BME280;26418;50.070;8.436;2022-11-14T01:58:21;99994.38;;;4.13;96.28
40730;BME280;26418;50.070;8.436;2022-11-14T02:00:47;99989.81;;;4.08;96.39
40730;BME280;26418;50.070;8.436;2022-11-14T02:03:14;99992.44;;;4.03;96.48
40730;BME280;26418;50.070;8.436;2022-11-14T02:05:40;99983.00;;;3.96;96.34
40730;BME280;26418;50.070;8.436;2022-11-14T02:08:09;99984.03;;;3.89;96.65
40730;BME280;26418;50.070;8.436;2022-11-14T02:10:37;99987.72;;;3.83;96.72
40730;BME280;26418;50.070;8.436;2022-11-14T02:13:02;99984.75;;;3.80;97.25
40730;BME280;26418;50.070;8.436;2022-11-14T02:15:48;99981.50;;;3.77;97.40
40730;BME280;26418;50.070;8.436;2022-11-14T02:18:19;99978.28;;;3.75;97.52
40730;BME280;26418;50.070;8.436;2022-11-14T02:20:47;99980.41;;;3.73;97.69
40730;BME280;26418;50.070;8.436;2022-11-14T02:23:13;99981.47;;;3.72;97.70
40730;BME280;26418;50.070;8.436;2022-11-14T02:25:39;99985.44;;;3.70;97.84
40730;BME280;26418;50.070;8.436;2022-11-14T02:28:06;99983.84;;;3.69;98.01
40730;BME280;26418;50.070;8.436;2022-11-14T02:30:33;99984.34;;;3.66;98.10
40730;BME280;26418;50.070;8.436;2022-11-14T02:32:59;99981.38;;;3.62;98.23
40730;BME280;26418;50.070;8.436;2022-11-14T02:35:24;99977.13;;;3.66;98.66
40730;BME280;26418;50.070;8.436;2022-11-14T02:37:50;99978.72;;;3.67;98.93
40730;BME280;26418;50.070;8.436;2022-11-14T02:40:15;99965.91;;;3.69;98.92
40730;BME280;26418;50.070;8.436;2022-11-14T02:42:41;99972.06;;;3.70;98.97
40730;BME280;26418;50.070;8.436;2022-11-14T02:45:07;99971.00;;;3.71;98.97
40730;BME280;26418;50.070;8.436;2022-11-14T02:47:33;99964.31;;;3.68;99.07
40730;BME280;26418;50.070;8.436;2022-11-14T02:49:58;99962.94;;;3.66;99.05
40730;BME280;26418;50.070;8.436;2022-11-14T02:52:24;99958.09;;;3.62;99.08
40730;BME280;26418;50.070;8.436;2022-11-14T02:54:49;99964.75;;;3.60;99.19
40730;BME280;26418;50.070;8.436;2022-11-14T02:57:15;99945.44;;;3.53;99.27
40730;BME280;26418;50.070;8.436;2022-11-14T02:59:40;99958.53;;;3.54;99.22
40730;BME280;26418;50.070;8.436;2022-11-14T03:02:06;99949.44;;;3.50;99.31
40730;BME280;26418;50.070;8.436;2022-11-14T03:04:31;99949.38;;;3.45;99.38
40730;BME280;26418;50.070;8.436;2022-11-14T03:06:57;99946.91;;;3.38;99.40
40730;BME280;26418;50.070;8.436;2022-11-14T03:09:22;99953.25;;;3.32;99.39
40730;BME280;26418;50.070;8.436;2022-11-14T03:11:47;99938.50;;;3.29;99.52
40730;BME280;26418;50.070;8.436;2022-11-14T03:14:13;99940.31;;;3.24;99.48
40730;BME280;26418;50.070;8.436;2022-11-14T03:16:38;99940.84;;;3.21;99.15
40730;BME280;26418;50.070;8.436;2022-11-14T03:19:04;99945.31;;;3.15;99.01
40730;BME280;26418;50.070;8.436;2022-11-14T03:21:29;99937.78;;;3.12;98.76
40730;BME280;26418;50.070;8.436;2022-11-14T03:23:54;99933.75;;;3.09;98.76
40730;BME280;26418;50.070;8.436;2022-11-14T03:26:20;99934.28;;;3.06;98.49
40730;BME280;26418;50.070;8.436;2022-11-14T03:28:45;99917.13;;;3.02;98.17
40730;BME280;26418;50.070;8.436;2022-11-14T03:31:11;99915.00;;;3.04;97.79
40730;BME280;26418;50.070;8.436;2022-11-14T03:33:37;99911.28;;;3.05;96.91
40730;BME280;26418;50.070;8.436;2022-11-14T03:36:03;99915.22;;;3.03;96.58
40730;BME280;26418;50.070;8.436;2022-11-14T03:38:29;99917.59;;;2.99;96.22
40730;BME280;26418;50.070;8.436;2022-11-14T03:40:56;99920.22;;;2.94;96.26
40730;BME280;26418;50.070;8.436;2022-11-14T03:43:22;99919.34;;;2.88;96.00
40730;BME280;26418;50.070;8.436;2022-11-14T03:45:47;99921.16;;;2.82;96.23
40730;BME280;26418;50.070;8.436;2022-11-14T03:48:13;99914.13;;;2.76;96.49
40730;BME280;26418;50.070;8.436;2022-11-14T03:50:39;99913.56;;;2.74;96.46
40730;BME280;26418;50.070;8.436;2022-11-14T03:53:04;99903.88;;;2.68;96.62
40730;BME280;26418;50.070;8.436;2022-11-14T03:55:30;99916.75;;;2.71;96.82
40730;BME280;26418;50.070;8.436;2022-11-14T03:57:55;99924.19;;;2.69;96.97
40730;BME280;26418;50.070;8.436;2022-11-14T04:00:21;99926.06;;;2.69;96.89
40730;BME280;26418;50.070;8.436;2022-11-14T04:02:46;99918.28;;;2.67;97.21
40730;BME280;26418;50.070;8.436;2022-11-14T04:05:12;99925.25;;;2.68;97.13
40730;BME280;26418;50.070;8.436;2022-11-14T04:07:37;99921.78;;;2.67;97.38
40730;BME280;26418;50.070;8.436;2022-11-14T04:10:03;99924.25;;;2.74;97.47
40730;BME280;26418;50.070;8.436;2022-11-14T04:12:29;99924.56;;;2.78;97.48
40730;BME280;26418;50.070;8.436;2022-11-14T04:14:54;99914.44;;;2.80;97.70
40730;BME280;26418;50.070;8.436;2022-11-14T04:17:20;99922.34;;;2.92;97.86
40730;BME280;26418;50.070;8.436;2022-11-14T04:19:45;99920.84;;;3.01;97.86
40730;BME280;26418;50.070;8.436;2022-11-14T04:22:10;99910.22;;;3.06;97.76
40730;BME280;26418;50.070;8.436;2022-11-14T04:24:36;99919.16;;;3.17;97.82
40730;BME280;26418;50.070;8.436;2022-11-14T04:27:01;99909.06;;;3.24;97.68
40730;BME280;26418;50.070;8.436;2022-11-14T04:29:27;99900.03;;;3.30;97.55
40730;BME280;26418;50.070;8.436;2022-11-14T04:31:52;99893.16;;;3.35;97.44
40730;BME280;26418;50.070;8.436;2022-11-14T04:34:17;99889.94;;;3.38;97.24
40730;BME280;26418;50.070;8.436;2022-11-14T04:36:43;99893.47;;;3.43;97.65
40730;BME280;26418;50.070;8.436;2022-11-14T04:39:08;99894.91;;;3.51;97.92
40730;BME280;26418;50.070;8.436;2022-11-14T04:41:34;99888.56;;;3.62;97.68
40730;BME280;26418;50.070;8.436;2022-11-14T04:43:59;99888.06;;;3.66;97.27
40730;BME280;26418;50.070;8.436;2022-11-14T04:46:25;99890.72;;;3.66;97.15
40730;BME280;26418;50.070;8.436;2022-11-14T04:48:50;99890.25;;;3.69;97.42
40730;BME280;26418;50.070;8.436;2022-11-14T04:51:16;99886.75;;;3.68;97.63
40730;BME280;26418;50.070;8.436;2022-11-14T04:53:41;99891.13;;;3.80;97.97
40730;BME280;26418;50.070;8.436;2022-11-14T04:56:07;99888.56;;;3.95;98.60
40730;BME280;26418;50.070;8.436;2022-11-14T04:58:32;99878.44;;;4.02;98.14
40730;BME280;26418;50.070;8.436;2022-11-14T05:00:58;99887.03;;;4.09;97.73
40730;BME280;26418;50.070;8.436;2022-11-14T05:03:24;99883.31;;;4.11;97.89
40730;BME280;26418;50.070;8.436;2022-11-14T05:05:49;99885.47;;;4.14;97.97
40730;BME280;26418;50.070;8.436;2022-11-14T05:08:15;99888.16;;;4.19;98.32
40730;BME280;26418;50.070;8.436;2022-11-14T05:10:44;99896.22;;;4.24;98.11
40730;BME280;26418;50.070;8.436;2022-11-14T05:13:10;99896.78;;;4.26;98.16
40730;BME280;26418;50.070;8.436;2022-11-14T05:15:36;99886.63;;;4.28;98.21
40730;BME280;26418;50.070;8.436;2022-11-14T05:18:02;99884.75;;;4.29;98.42
40730;BME280;26418;50.070;8.436;2022-11-14T05:20:28;99870.81;;;4.27;98.22
40730;BME280;26418;50.070;8.436;2022-11-14T05:22:54;99883.44;;;4.31;98.22
40730;BME280;26418;50.070;8.436;2022-11-14T05:25:21;99879.16;;;4.30;98.35
40730;BME280;26418;50.070;8.436;2022-11-14T05:27:47;99880.78;;;4.36;98.32
40730;BME280;26418;50.070;8.436;2022-11-14T05:30:13;99882.16;;;4.44;99.59
40730;BME280;26418;50.070;8.436;2022-11-14T05:32:39;99869.34;;;4.56;100.00
40730;BME280;26418;50.070;8.436;2022-11-14T05:35:05;99867.00;;;4.65;100.00
40730;BME280;26418;50.070;8.436;2022-11-14T05:37:30;99871.84;;;4.84;100.00
40730;BME280;26418;50.070;8.436;2022-11-14T05:39:56;99869.53;;;5.08;100.00
40730;BME280;26418;50.070;8.436;2022-11-14T05:42:21;99875.47;;;5.31;100.00
40730;BME280;26418;50.070;8.436;2022-11-14T05:44:46;99862.84;;;5.42;100.00
40730;BME280;26418;50.070;8.436;2022-11-14T05:47:12;99866.38;;;5.53;100.00
40730;BME280;26418;50.070;8.436;2022-11-14T05:49:37;99866.91;;;5.65;100.00
40730;BME280;26418;50.070;8.436;2022-11-14T05:52:03;99856.44;;;5.63;100.00
40730;BME280;26418;50.070;8.436;2022-11-14T05:54:28;99859.13;;;5.63;100.00
40730;BME280;26418;50.070;8.436;2022-11-14T05:56:54;99870.13;;;5.51;100.00
40730;BME280;26418;50.070;8.436;2022-11-14T05:59:19;99871.19;;;5.35;100.00
40730;BME280;26418;50.070;8.436;2022-11-14T06:01:44;99866.31;;;5.22;100.00
40730;BME280;26418;50.070;8.436;2022-11-14T06:04:12;99879.72;;;5.11;100.00
40730;BME280;26418;50.070;8.436;2022-11-14T06:06:38;99878.63;;;5.02;100.00
40730;BME280;26418;50.070;8.436;2022-11-14T06:09:04;99883.72;;;4.98;100.00
40730;BME280;26418;50.070;8.436;2022-11-14T06:11:29;99879.16;;;4.99;100.00
40730;BME280;26418;50.070;8.436;2022-11-14T06:13:54;99875.69;;;4.98;100.00
40730;BME280;26418;50.070;8.436;2022-11-14T06:16:20;99879.16;;;5.04;99.68
40730;BME280;26418;50.070;8.436;2022-11-14T06:18:46;99875.41;;;5.05;97.66
40730;BME280;26418;50.070;8.436;2022-11-14T06:21:14;99868.44;;;4.99;96.17
40730;BME280;26418;50.070;8.436;2022-11-14T06:23:39;99874.06;;;5.02;95.33
40730;BME280;26418;50.070;8.436;2022-11-14T06:26:10;99879.97;;;4.99;95.17
40730;BME280;26418;50.070;8.436;2022-11-14T06:28:36;99875.41;;;5.00;95.43
40730;BME280;26418;50.070;8.436;2022-11-14T06:31:03;99879.47;;;5.08;94.50
40730;BME280;26418;50.070;8.436;2022-11-14T06:33:33;99885.06;;;5.01;94.19
40730;BME280;26418;50.070;8.436;2022-11-14T06:36:01;99866.56;;;4.99;95.06
40730;BME280;26418;50.070;8.436;2022-11-14T06:38:30;99860.38;;;4.99;94.65
40730;BME280;26418;50.070;8.436;2022-11-14T06:41:07;99873.25;;;4.97;94.93
40730;BME280;26418;50.070;8.436;2022-11-14T06:43:40;99875.13;;;4.96;95.24
40730;BME280;26418;50.070;8.436;2022-11-14T06:46:07;99876.19;;;5.00;95.62
40730;BME280;26418;50.070;8.436;2022-11-14T06:48:33;99868.97;;;5.01;94.85
40730;BME280;26418;50.070;8.436;2022-11-14T06:50:59;99875.13;;;4.96;94.72
40730;BME280;26418;50.070;8.436;2022-11-14T06:53:27;99862.00;;;4.95;95.14
40730;BME280;26418;50.070;8.436;2022-11-14T06:58:21;99855.34;;;5.08;94.98
40730;BME280;26418;50.070;8.436;2022-11-14T07:00:46;99857.50;;;5.16;92.62
40730;BME280;26418;50.070;8.436;2022-11-14T07:03:12;99863.38;;;5.13;92.46
40730;BME280;26418;50.070;8.436;2022-11-14T07:05:37;99861.22;;;5.10;92.67
40730;BME280;26418;50.070;8.436;2022-11-14T07:08:03;99864.16;;;5.08;92.76
40730;BME280;26418;50.070;8.436;2022-11-14T07:10:28;99863.34;;;5.02;92.43
40730;BME280;26418;50.070;8.436;2022-11-14T07:12:54;99852.34;;;4.99;93.02
40730;BME280;26418;50.070;8.436;2022-11-14T07:15:19;99852.34;;;5.04;93.71
40730;BME280;26418;50.070;8.436;2022-11-14T07:17:45;99851.00;;;5.01;93.72
40730;BME280;26418;50.070;8.436;2022-11-14T07:20:13;99863.38;;;5.08;93.79
40730;BME280;26418;50.070;8.436;2022-11-14T07:22:39;99861.47;;;5.08;94.17
40730;BME280;26418;50.070;8.436;2022-11-14T07:25:05;99870.34;;;5.19;95.82
40730;BME280;26418;50.070;8.436;2022-11-14T07:27:30;99862.03;;;5.31;96.02
40730;BME280;26418;50.070;8.436;2022-11-14T07:29:56;99858.56;;;5.30;94.76
40730;BME280;26418;50.070;8.436;2022-11-14T07:32:21;99858.31;;;5.27;94.00
40730;BME280;26418;50.070;8.436;2022-11-14T07:34:46;99864.47;;;5.22;93.38
40730;BME280;26418;50.070;8.436;2022-11-14T07:37:12;99882.69;;;5.20;93.64
40730;BME280;26418;50.070;8.436;2022-11-14T07:39:37;99880.56;;;5.22;93.88
40730;BME280;26418;50.070;8.436;2022-11-14T07:42:03;99886.69;;;5.23;93.80
40730;BME280;26418;50.070;8.436;2022-11-14T07:44:28;99883.22;;;5.22;94.02
40730;BME280;26418;50.070;8.436;2022-11-14T07:46:54;99888.03;;;5.25;94.23
40730;BME280;26418;50.070;8.436;2022-11-14T07:49:19;99865.00;;;5.29;94.04
40730;BME280;26418;50.070;8.436;2022-11-14T07:51:44;99866.34;;;5.32;94.07
40730;BME280;26418;50.070;8.436;2022-11-14T07:54:10;99875.22;;;5.32;93.46
40730;BME280;26418;50.070;8.436;2022-11-14T07:56:36;99870.09;;;5.31;93.19
40730;BME280;26418;50.070;8.436;2022-11-14T07:59:01;99880.81;;;5.26;92.85
40730;BME280;26418;50.070;8.436;2022-11-14T08:01:27;99874.13;;;5.23;93.34
40730;BME280;26418;50.070;8.436;2022-11-14T08:03:52;99888.06;;;5.30;93.56
40730;BME280;26418;50.070;8.436;2022-11-14T08:06:18;99878.97;;;5.31;92.87
40730;BME280;26418;50.070;8.436;2022-11-14T08:08:43;99873.31;;;5.28;93.00
40730;BME280;26418;50.070;8.436;2022-11-14T08:11:09;99865.78;;;5.30;93.17
40730;BME280;26418;50.070;8.436;2022-11-14T08:13:35;99868.50;;;5.35;93.24
40730;BME280;26418;50.070;8.436;2022-11-14T08:16:08;99866.63;;;5.46;93.75
40730;BME280;26418;50.070;8.436;2022-11-14T08:18:34;99880.59;;;5.53;93.23
40730;BME280;26418;50.070;8.436;2022-11-14T08:21:03;99880.84;;;5.57;92.38
40730;BME280;26418;50.070;8.436;2022-11-14T08:23:28;99880.88;;;5.62;93.21
40730;BME280;26418;50.070;8.436;2022-11-14T08:25:54;99885.44;;;5.66;93.63
40730;BME280;26418;50.070;8.436;2022-11-14T08:28:19;99888.09;;;5.72;92.87
40730;BME280;26418;50.070;8.436;2022-11-14T08:30:45;99891.34;;;5.74;92.52
40730;BME280;26418;50.070;8.436;2022-11-14T08:33:10;99886.78;;;5.69;91.70
40730;BME280;26418;50.070;8.436;2022-11-14T08:35:35;99893.72;;;5.65;92.11
40730;BME280;26418;50.070;8.436;2022-11-14T08:38:01;99894.78;;;5.64;92.66
40730;BME280;26418;50.070;8.436;2022-11-14T08:40:27;99890.78;;;5.61;92.71
40730;BME280;26418;50.070;8.436;2022-11-14T08:42:58;99887.03;;;5.62;92.88
40730;BME280;26418;50.070;8.436;2022-11-14T08:45:24;99888.91;;;5.62;93.16
40730;BME280;26418;50.070;8.436;2022-11-14T08:47:51;99895.34;;;5.66;93.67
40730;BME280;26418;50.070;8.436;2022-11-14T08:50:16;99877.91;;;5.63;93.70
40730;BME280;26418;50.070;8.436;2022-11-14T08:52:42;99867.44;;;5.72;93.80
40730;BME280;26418;50.070;8.436;2022-11-14T08:55:08;99869.31;;;5.77;93.44
40730;BME280;26418;50.070;8.436;2022-11-14T08:57:33;99870.41;;;5.81;93.74
40730;BME280;26418;50.070;8.436;2022-11-14T08:59:59;99874.94;;;5.86;93.55
40730;BME280;26418;50.070;8.436;2022-11-14T09:02:24;99890.25;;;5.90;93.42
40730;BME280;26418;50.070;8.436;2022-11-14T09:04:49;99893.22;;;5.99;93.71
40730;BME280;26418;50.070;8.436;2022-11-14T09:07:15;99898.59;;;6.04;93.75
40730;BME280;26418;50.070;8.436;2022-11-14T09:09:41;99896.16;;;6.08;92.96
40730;BME280;26418;50.070;8.436;2022-11-14T09:12:06;99898.84;;;6.03;93.11
40730;BME280;26418;50.070;8.436;2022-11-14T09:14:32;99904.75;;;6.05;93.26
40730;BME280;26418;50.070;8.436;2022-11-14T09:16:57;99897.75;;;6.09;93.37
40730;BME280;26418;50.070;8.436;2022-11-14T09:19:23;99898.28;;;6.11;93.85
40730;BME280;26418;50.070;8.436;2022-11-14T09:21:48;99905.56;;;6.10;93.50
40730;BME280;26418;50.070;8.436;2022-11-14T09:24:13;99894.53;;;6.17;93.67
40730;BME280;26418;50.070;8.436;2022-11-14T09:26:39;99900.19;;;6.21;93.52
40730;BME280;26418;50.070;8.436;2022-11-14T09:29:04;99893.16;;;6.30;93.56
40730;BME280;26418;50.070;8.436;2022-11-14T09:31:30;99907.09;;;6.42;93.14
40730;BME280;26418;50.070;8.436;2022-11-14T09:33:56;99906.50;;;6.56;92.74
40730;BME280;26418;50.070;8.436;2022-11-14T09:36:21;99896.81;;;6.65;92.47
40730;BME280;26418;50.070;8.436;2022-11-14T09:38:50;99899.19;;;6.77;91.99
40730;BME280;26418;50.070;8.436;2022-11-14T09:44:17;99871.72;;;6.90;89.67
40730;BME280;26418;50.070;8.436;2022-11-14T09:47:00;99869.53;;;6.98;89.48
40730;BME280;26418;50.070;8.436;2022-11-14T09:49:34;99863.03;;;7.09;89.33
40730;BME280;26418;50.070;8.436;2022-11-14T09:52:25;99843.97;;;7.40;88.10
40730;BME280;26418;50.070;8.436;2022-11-14T09:55:13;99850.13;;;7.46;85.20
40730;BME280;26418;50.070;8.436;2022-11-14T09:57:42;99850.38;;;7.44;84.83
40730;BME280;26418;50.070;8.436;2022-11-14T10:08:33;99857.31;;;7.55;85.63
40730;BME280;26418;50.070;8.436;2022-11-14T10:16:18;99856.47;;;7.60;84.50
40730;BME280;26418;50.070;8.436;2022-11-14T10:24:45;99859.88;;;7.71;84.80
40730;BME280;26418;50.070;8.436;2022-11-14T10:27:21;99854.19;;;7.72;84.42
40730;BME280;26418;50.070;8.436;2022-11-14T10:35:14;99850.56;;;7.87;83.80
40730;BME280;26418;50.070;8.436;2022-11-14T10:40:38;99831.16;;;7.91;83.36
40730;BME280;26418;50.070;8.436;2022-11-14T10:48:44;99804.06;;;8.06;82.45
40730;BME280;26418;50.070;8.436;2022-11-14T10:51:32;99790.06;;;8.04;82.39
40730;BME280;26418;50.070;8.436;2022-11-14T10:55:05;99793.53;;;8.10;82.06
40730;BME280;26418;50.070;8.436;2022-11-14T10:57:18;99796.38;;;8.18;81.84
40730;BME280;26418;50.070;8.436;2022-11-14T10:59:44;99794.88;;;8.31;80.95
40730;BME280;26418;50.070;8.436;2022-11-14T11:02:10;99788.28;;;8.43;80.89
40730;BME280;26418;50.070;8.436;2022-11-14T11:04:38;99805.84;;;8.40;80.29
40730;BME280;26418;50.070;8.436;2022-11-14T11:09:34;99789.41;;;8.61;80.68
40730;BME280;26418;50.070;8.436;2022-11-14T11:12:47;99784.28;;;8.64;79.91
40730;BME280;26418;50.070;8.436;2022-11-14T11:18:02;99755.09;;;8.47;79.35
40730;BME280;26418;50.070;8.436;2022-11-14T11:20:40;99773.75;;;8.63;78.99
40730;BME280;26418;50.070;8.436;2022-11-14T11:23:26;99760.06;;;8.59;79.76
40730;BME280;26418;50.070;8.436;2022-11-14T11:26:29;99764.59;;;8.64;79.86
40730;BME280;26418;50.070;8.436;2022-11-14T11:29:13;99774.06;;;8.61;80.31
40730;BME280;26418;50.070;8.436;2022-11-14T11:34:30;99756.41;;;8.50;79.86
40730;BME280;26418;50.070;8.436;2022-11-14T11:37:02;99749.53;;;8.39;80.19
40730;BME280;26418;50.070;8.436;2022-11-14T11:39:32;99755.63;;;8.44;80.82
40730;BME280;26418;50.070;8.436;2022-11-14T11:42:04;99755.47;;;8.60;80.14
40730;BME280;26418;50.070;8.436;2022-11-14T11:44:39;99748.19;;;8.79;80.12
40730;BME280;26418;50.070;8.436;2022-11-14T11:47:12;99739.28;;;8.98;79.15
40730;BME280;26418;50.070;8.436;2022-11-14T11:52:16;99727.09;;;9.34;76.28
40730;BME280;26418;50.070;8.436;2022-11-14T11:54:47;99737.88;;;9.34;76.65
40730;BME280;26418;50.070;8.436;2022-11-14T11:57:17;99737.00;;;9.38;76.89
40730;BME280;26418;50.070;8.436;2022-11-14T11:59:47;99731.31;;;9.54;75.82
40730;BME280;26418;50.070;8.436;2022-11-14T12:02:25;99732.66;;;9.56;75.79
40730;BME280;26418;50.070;8.436;2022-11-14T12:04:53;99751.03;;;9.54;75.83
40730;BME280;26418;50.070;8.436;2022-11-14T12:07:23;99733.66;;;9.74;75.79
40730;BME280;26418;50.070;8.436;2022-11-14T12:09:54;99731.34;;;9.82;75.87
40730;BME280;26418;50.070;8.436;2022-11-14T12:26:53;99732.00;;;9.46;76.38
40730;BME280;26418;50.070;8.436;2022-11-14T12:29:33;99742.38;;;9.38;77.11
40730;BME280;26418;50.070;8.436;2022-11-14T12:32:06;99733.78;;;9.36;77.11
40730;BME280;26418;50.070;8.436;2022-11-14T12:34:41;99718.00;;;9.30;77.73
40730;BME280;26418;50.070;8.436;2022-11-14T12:40:02;99726.69;;;9.40;77.58
40730;BME280;26418;50.070;8.436;2022-11-14T12:42:30;99722.00;;;9.32;77.56
40730;BME280;26418;50.070;8.436;2022-11-14T12:44:56;99726.09;;;9.30;78.06
40730;BME280;26418;50.070;8.436;2022-11-14T12:47:24;99720.97;;;9.28;78.57
40730;BME280;26418;50.070;8.436;2022-11-14T13:06:21;99697.56;;;8.76;80.87
40730;BME280;26418;50.070;8.436;2022-11-14T13:11:42;99687.97;;;8.84;82.69
40730;BME280;26418;50.070;8.436;2022-11-14T13:14:28;99684.66;;;8.73;83.59
40730;BME280;26418;50.070;8.436;2022-11-14T13:33:42;99672.25;;;8.72;85.11
40730;BME280;26418;50.070;8.436;2022-11-14T13:36:12;99672.25;;;8.72;85.41
40730;BME280;26418;50.070;8.436;2022-11-14T13:39:12;99667.38;;;8.74;85.03
40730;BME280;26418;50.070;8.436;2022-11-14T13:50:18;99653.69;;;8.71;85.49
40730;BME280;26418;50.070;8.436;2022-11-14T13:52:49;99652.38;;;8.68;85.53
40730;BME280;26418;50.070;8.436;2022-11-14T13:55:20;99652.66;;;8.67;85.73
40730;BME280;26418;50.070;8.436;2022-11-14T13:58:00;99656.16;;;8.67;85.90
40730;BME280;26418;50.070;8.436;2022-11-14T14:00:51;99655.88;;;8.69;85.76
40730;BME280;26418;50.070;8.436;2022-11-14T14:03:31;99649.97;;;8.67;85.88
40730;BME280;26418;50.070;8.436;2022-11-14T14:06:10;99652.38;;;8.68;85.90
40730;BME280;26418;50.070;8.436;2022-11-14T14:09:42;99648.66;;;8.64;85.72
40730;BME280;26418;50.070;8.436;2022-11-14T14:23:05;99647.06;;;8.63;87.15
40730;BME280;26418;50.070;8.436;2022-11-14T14:25:58;99652.72;;;8.80;86.87
40730;BME280;26418;50.070;8.436;2022-11-14T14:28:32;99653.84;;;8.93;86.23
40730;BME280;26418;50.070;8.436;2022-11-14T14:33:52;99637.28;;;9.00;85.59
40730;BME280;26418;50.070;8.436;2022-11-14T14:36:26;99644.34;;;8.96;86.00
40730;BME280;26418;50.070;8.436;2022-11-14T14:39:17;99639.38;;;8.89;86.14
40730;BME280;26418;50.070;8.436;2022-11-14T14:41:44;99649.53;;;8.92;86.36
40730;BME280;26418;50.070;8.436;2022-11-14T14:46:47;99635.66;;;8.85;87.03
40730;BME280;26418;50.070;8.436;2022-11-14T14:49:19;99636.94;;;8.88;87.31
40730;BME280;26418;50.070;8.436;2022-11-14T14:51:45;99630.84;;;8.82;87.40
40730;BME280;26418;50.070;8.436;2022-11-14T14:54:25;99638.03;;;8.87;87.75
40730;BME280;26418;50.070;8.436;2022-11-14T14:56:57;99637.75;;;8.88;87.97
40730;BME280;26418;50.070;8.436;2022-11-14T14:59:29;99623.47;;;8.88;87.85
40730;BME280;26418;50.070;8.436;2022-11-14T15:01:56;99618.16;;;8.83;88.03
40730;BME280;26418;50.070;8.436;2022-11-14T15:04:25;99625.16;;;8.84;88.26
40730;BME280;26418;50.070;8.436;2022-11-14T15:06:53;99618.69;;;8.85;88.17
40730;BME280;26418;50.070;8.436;2022-11-14T15:09:26;99609.72;;;8.70;88.43
40730;BME280;26418;50.070;8.436;2022-11-14T15:11:57;99628.13;;;8.82;88.58
40730;BME280;26418;50.070;8.436;2022-11-14T15:14:32;99621.44;;;8.79;88.57
40730;BME280;26418;50.070;8.436;2022-11-14T15:17:10;99615.25;;;8.79;88.71
40730;BME280;26418;50.070;8.436;2022-11-14T15:19:39;99620.94;;;8.77;89.18
40730;BME280;26418;50.070;8.436;2022-11-14T15:24:37;99620.72;;;8.74;89.27
40730;BME280;26418;50.070;8.436;2022-11-14T15:27:04;99625.31;;;8.73;89.44
40730;BME280;26418;50.070;8.436;2022-11-14T15:29:47;99623.72;;;8.72;89.60
40730;BME280;26418;50.070;8.436;2022-11-14T15:32:22;99614.03;;;8.71;89.58
40730;BME280;26418;50.070;8.436;2022-11-14T15:38:02;99611.44;;;8.66;89.91